Time;durP1;ratioP1;P1;durP2;ratioP2;P2;SDS_P1;SDS_P2;PMS_P1;PMS_P2;Temp;Humidity;BMP_temperature;BMP_pressure;BME280_temperature;BME280_humidity;BME280_pressure;Samples;Min_cycle;Max_cycle;Signal;HPM_P1;HPM_P2
2022/04/25 00:01:58;;;;;;;;;;;20.50;45.90;;;;;;5053415;28;19939;-81
2022/04/25 00:04:23;;;;;;;;;;;20.50;45.90;;;;;;5062294;28;19924;-78
2022/04/25 00:06:49;;;;;;;;;;;20.50;45.90;;;;;;5054592;28;19972;-76
2022/04/25 00:09:14;;;;;;;;;;;20.50;45.90;;;;;;5054527;28;19943;-83
2022/04/25 00:11:40;;;;;;;;;;;20.50;46.00;;;;;;5032691;28;19924;-77
2022/04/25 00:14:06;;;;;;;;;;;20.40;45.90;;;;;;5055509;28;19998;-80
2022/04/25 00:16:32;;;;;;;;;;;20.40;45.90;;;;;;5059932;28;19982;-78
2022/04/25 00:18:58;;;;;;;;;;;20.50;46.70;;;;;;5074602;28;20011;-80
2022/04/25 00:21:23;;;;;;;;;;;20.40;45.90;;;;;;5072171;28;20629;-78
2022/04/25 00:23:49;;;;;;;;;;;20.40;45.90;;;;;;5053998;28;19932;-74
2022/04/25 00:26:14;;;;;;;;;;;20.40;45.90;;;;;;5055275;28;20412;-77
2022/04/25 00:28:40;;;;;;;;;;;20.40;45.90;;;;;;5052767;28;19920;-75
2022/04/25 00:31:05;;;;;;;;;;;20.40;45.90;;;;;;5072529;28;19931;-74
2022/04/25 00:33:31;;;;;;;;;;;20.40;45.90;;;;;;5073819;28;19963;-77
2022/04/25 00:35:56;;;;;;;;;;;20.40;46.00;;;;;;5059861;28;20099;-74
2022/04/25 00:38:22;;;;;;;;;;;20.40;46.00;;;;;;5074252;28;19923;-74
2022/04/25 00:40:47;;;;;;;;;;;20.40;46.00;;;;;;5058180;28;19937;-75
2022/04/25 00:43:13;;;;;;;;;;;20.40;46.00;;;;;;5089468;28;20007;-76
2022/04/25 00:45:38;;;;;;;;;;;20.40;46.00;;;;;;5040589;28;19923;-74
2022/04/25 00:48:04;;;;;;;;;;;20.50;46.10;;;;;;5055347;28;20289;-77
2022/04/25 00:50:30;;;;;;;;;;;20.40;46.00;;;;;;5056632;28;19932;-76
2022/04/25 00:52:55;;;;;;;;;;;20.40;46.10;;;;;;5052541;28;19928;-75
2022/04/25 00:55:21;;;;;;;;;;;20.40;46.10;;;;;;5050984;28;19924;-76
2022/04/25 00:57:47;;;;;;;;;;;20.40;46.10;;;;;;5050028;28;19920;-76
2022/04/25 01:00:13;;;;;;;;;;;20.40;46.10;;;;;;5066009;28;20423;-75
2022/04/25 01:02:39;;;;;;;;;;;20.40;46.10;;;;;;5070666;28;19924;-79
2022/04/25 01:05:05;;;;;;;;;;;20.40;46.10;;;;;;5038528;28;19927;-76
2022/04/25 01:07:31;;;;;;;;;;;20.40;46.20;;;;;;5035640;28;20060;-76
2022/04/25 01:09:56;;;;;;;;;;;20.40;46.20;;;;;;5049506;28;21708;-76
2022/04/25 01:12:22;;;;;;;;;;;20.30;46.20;;;;;;5055162;28;19924;-76
2022/04/25 01:14:55;;;;;;;;;;;20.40;46.20;;;;;;5055085;28;19928;-79
2022/04/25 01:17:20;;;;;;;;;;;20.40;46.30;;;;;;5050311;28;20352;-76
2022/04/25 01:19:46;;;;;;;;;;;20.40;46.30;;;;;;5052053;28;20011;-77
2022/04/25 01:22:14;;;;;;;;;;;20.30;46.20;;;;;;5051658;28;19924;-77
2022/04/25 01:27:24;;;;;;;;;;;20.30;46.20;;;;;;5052546;28;19924;-77
2022/04/25 01:29:51;;;;;;;;;;;20.30;46.20;;;;;;5050426;28;19928;-82
2022/04/25 01:32:17;;;;;;;;;;;20.30;46.20;;;;;;5052682;28;19935;-76
2022/04/25 01:34:42;;;;;;;;;;;20.30;46.20;;;;;;5053841;28;20496;-76
2022/04/25 01:37:09;;;;;;;;;;;20.30;46.30;;;;;;5037405;28;20536;-78
2022/04/25 01:39:45;;;;;;;;;;;20.30;46.20;;;;;;5034805;28;19924;-77
2022/04/25 01:42:11;;;;;;;;;;;20.30;46.20;;;;;;5055349;28;20470;-76
2022/04/25 01:44:37;;;;;;;;;;;20.30;46.20;;;;;;5056145;28;19934;-77
2022/04/25 01:47:03;;;;;;;;;;;20.30;46.20;;;;;;5051051;28;19928;-79
2022/04/25 01:49:28;;;;;;;;;;;20.30;46.20;;;;;;5054616;28;19924;-75
2022/04/25 01:51:54;;;;;;;;;;;20.30;46.30;;;;;;5052462;28;19928;-76
2022/04/25 01:54:25;;;;;;;;;;;20.30;46.20;;;;;;5056650;28;20393;-75
2022/04/25 01:56:51;;;;;;;;;;;20.30;46.20;;;;;;5054868;28;19920;-76
2022/04/25 01:59:16;;;;;;;;;;;20.30;46.30;;;;;;5049930;28;20572;-76
2022/04/25 02:01:43;;;;;;;;;;;20.20;47.00;;;;;;5051251;28;19924;-76
2022/04/25 02:04:08;;;;;;;;;;;20.30;46.30;;;;;;5055365;28;19924;-76
2022/04/25 02:06:34;;;;;;;;;;;20.20;46.20;;;;;;5049861;28;19985;-78
2022/04/25 02:09:00;;;;;;;;;;;20.20;46.20;;;;;;5046255;28;19928;-75
2022/04/25 02:11:25;;;;;;;;;;;20.30;46.30;;;;;;5056020;28;20372;-76
2022/04/25 02:13:51;;;;;;;;;;;20.30;46.30;;;;;;5049593;28;19920;-76
2022/04/25 02:16:18;;;;;;;;;;;20.30;46.30;;;;;;5033221;28;19920;-76
2022/04/25 02:18:43;;;;;;;;;;;20.20;46.20;;;;;;5032577;28;19946;-77
2022/04/25 02:21:09;;;;;;;;;;;20.20;46.20;;;;;;5053511;28;20446;-76
2022/04/25 02:23:34;;;;;;;;;;;20.20;46.20;;;;;;5032439;28;20435;-75
2022/04/25 02:26:00;;;;;;;;;;;20.20;46.30;;;;;;5053627;28;20355;-75
2022/04/25 02:28:25;;;;;;;;;;;20.20;46.20;;;;;;5052681;28;19924;-75
2022/04/25 02:30:51;;;;;;;;;;;20.20;46.20;;;;;;5034775;28;19928;-75
2022/04/25 02:33:17;;;;;;;;;;;20.20;46.20;;;;;;5035464;28;19924;-76
2022/04/25 02:35:43;;;;;;;;;;;20.20;46.20;;;;;;5052128;28;19920;-76
2022/04/25 02:38:09;;;;;;;;;;;20.20;46.30;;;;;;5056161;28;20273;-77
2022/04/25 02:40:34;;;;;;;;;;;20.20;46.20;;;;;;5053749;28;19935;-77
2022/04/25 02:43:00;;;;;;;;;;;20.20;46.20;;;;;;5052804;28;20026;-77
2022/04/25 02:45:25;;;;;;;;;;;20.20;46.20;;;;;;5053472;28;20018;-76
2022/04/25 02:47:51;;;;;;;;;;;20.20;46.20;;;;;;5048991;28;19930;-77
2022/04/25 02:50:17;;;;;;;;;;;20.20;46.20;;;;;;5049863;28;19994;-75
2022/04/25 02:52:43;;;;;;;;;;;20.20;46.20;;;;;;5053132;28;20441;-76
2022/04/25 02:55:09;;;;;;;;;;;20.20;46.10;;;;;;5058237;28;19921;-75
2022/04/25 02:57:34;;;;;;;;;;;20.20;46.20;;;;;;5078541;28;19931;-76
2022/04/25 03:00:00;;;;;;;;;;;20.20;46.20;;;;;;5038715;28;19924;-76
2022/04/25 03:02:26;;;;;;;;;;;20.20;46.20;;;;;;5072957;28;19924;-75
2022/04/25 03:04:51;;;;;;;;;;;20.20;46.20;;;;;;5052462;28;19936;-75
2022/04/25 03:07:17;;;;;;;;;;;20.10;46.10;;;;;;5055348;28;19943;-75
2022/04/25 03:09:42;;;;;;;;;;;20.20;46.20;;;;;;5032243;28;20022;-76
2022/04/25 03:12:09;;;;;;;;;;;20.20;46.20;;;;;;5053741;28;19924;-78
2022/04/25 03:14:34;;;;;;;;;;;20.20;46.20;;;;;;5054704;28;19979;-77
2022/04/25 03:17:00;;;;;;;;;;;20.20;46.10;;;;;;5045024;28;20005;-75
2022/04/25 03:19:26;;;;;;;;;;;20.20;46.20;;;;;;5051325;28;19924;-76
2022/04/25 03:21:51;;;;;;;;;;;20.20;46.20;;;;;;5052178;28;19924;-76
2022/04/25 03:24:17;;;;;;;;;;;20.20;46.20;;;;;;5035440;28;20299;-76
2022/04/25 03:26:42;;;;;;;;;;;20.20;46.20;;;;;;5058621;28;20542;-77
2022/04/25 03:29:08;;;;;;;;;;;20.20;46.10;;;;;;5051928;28;19924;-75
2022/04/25 03:31:34;;;;;;;;;;;20.20;46.10;;;;;;5043026;28;19935;-75
2022/04/25 03:33:59;;;;;;;;;;;20.10;46.10;;;;;;5052289;28;19928;-77
2022/04/25 03:36:26;;;;;;;;;;;20.20;46.10;;;;;;5071955;28;19931;-75
2022/04/25 03:38:52;;;;;;;;;;;20.10;46.10;;;;;;5053589;28;19930;-78
2022/04/25 03:41:18;;;;;;;;;;;20.10;46.10;;;;;;5041695;28;19920;-75
2022/04/25 03:43:43;;;;;;;;;;;20.10;46.10;;;;;;5053561;28;19927;-78
2022/04/25 03:46:09;;;;;;;;;;;20.10;46.10;;;;;;5059325;28;19982;-75
2022/04/25 03:48:35;;;;;;;;;;;20.10;46.10;;;;;;5032485;28;20317;-77
2022/04/25 03:51:03;;;;;;;;;;;20.10;46.10;;;;;;5047057;28;19928;-75
2022/04/25 03:53:28;;;;;;;;;;;20.10;46.10;;;;;;5050848;28;19928;-76
2022/04/25 03:58:38;;;;;;;;;;;20.10;46.10;;;;;;5050287;28;19924;-78
2022/04/25 04:01:04;;;;;;;;;;;20.10;46.10;;;;;;5054068;28;19944;-76
2022/04/25 04:03:30;;;;;;;;;;;20.10;46.10;;;;;;5052072;28;19935;-78
2022/04/25 04:05:56;;;;;;;;;;;20.10;46.10;;;;;;5051265;28;20011;-75
2022/04/25 04:08:22;;;;;;;;;;;20.10;46.10;;;;;;5053378;28;19924;-77
2022/04/25 04:10:47;;;;;;;;;;;20.10;46.10;;;;;;5051129;28;19928;-74
2022/04/25 04:13:13;;;;;;;;;;;20.10;46.10;;;;;;5051909;28;19977;-75
2022/04/25 04:15:38;;;;;;;;;;;20.10;46.10;;;;;;5039962;28;19928;-79
2022/04/25 04:18:07;;;;;;;;;;;20.10;46.10;;;;;;5054566;28;19936;-77
2022/04/25 04:20:33;;;;;;;;;;;20.10;46.10;;;;;;5068270;28;19928;-77
2022/04/25 04:22:58;;;;;;;;;;;20.10;46.10;;;;;;5030752;28;19977;-75
2022/04/25 04:25:24;;;;;;;;;;;20.10;46.10;;;;;;5056904;28;19920;-77
2022/04/25 04:27:49;;;;;;;;;;;20.10;46.10;;;;;;5049642;28;19927;-75
2022/04/25 04:30:15;;;;;;;;;;;20.10;46.10;;;;;;5034366;28;19928;-76
2022/04/25 04:32:41;;;;;;;;;;;20.10;46.10;;;;;;5053784;28;19924;-77
2022/04/25 04:35:08;;;;;;;;;;;20.10;46.10;;;;;;5058455;28;19924;-76
2022/04/25 04:37:33;;;;;;;;;;;20.10;46.10;;;;;;5053429;28;19969;-76
2022/04/25 04:42:44;;;;;;;;;;;20.10;46.10;;;;;;5056470;28;19928;-78
2022/04/25 04:45:11;;;;;;;;;;;20.10;46.10;;;;;;5055782;28;19924;-75
2022/04/25 04:47:38;;;;;;;;;;;20.10;46.10;;;;;;5051480;28;19928;-76
2022/04/25 04:50:04;;;;;;;;;;;20.10;46.10;;;;;;5050294;28;19935;-75
2022/04/25 04:52:30;;;;;;;;;;;20.10;46.10;;;;;;5054124;28;19931;-75
2022/04/25 04:54:55;;;;;;;;;;;20.10;46.10;;;;;;5054261;28;19928;-76
2022/04/25 04:57:21;;;;;;;;;;;20.10;46.10;;;;;;5034291;28;20391;-76
2022/04/25 04:59:46;;;;;;;;;;;20.10;46.10;;;;;;5048215;28;19928;-76
2022/04/25 05:02:12;;;;;;;;;;;20.10;46.10;;;;;;5052766;28;20007;-75
2022/04/25 05:04:38;;;;;;;;;;;20.10;46.10;;;;;;5056412;28;19963;-76
2022/04/25 05:07:04;;;;;;;;;;;20.10;46.10;;;;;;5043580;28;19929;-78
2022/04/25 05:09:30;;;;;;;;;;;20.10;46.10;;;;;;5051652;28;19935;-76
2022/04/25 05:11:56;;;;;;;;;;;20.10;46.10;;;;;;5051630;28;19939;-77
2022/04/25 05:14:21;;;;;;;;;;;20.10;46.10;;;;;;5035896;28;19924;-78
2022/04/25 05:16:47;;;;;;;;;;;20.10;46.10;;;;;;5032698;28;20445;-77
2022/04/25 05:19:12;;;;;;;;;;;20.10;46.10;;;;;;5055832;28;19915;-80
2022/04/25 05:21:39;;;;;;;;;;;20.10;46.20;;;;;;5052967;28;19920;-78
2022/04/25 05:24:05;;;;;;;;;;;20.10;46.30;;;;;;5066892;28;19924;-85
2022/04/25 05:26:31;;;;;;;;;;;20.10;46.30;;;;;;5051560;28;19928;-78
2022/04/25 05:28:57;;;;;;;;;;;20.10;46.30;;;;;;5065727;28;19928;-78
2022/04/25 05:31:23;;;;;;;;;;;20.20;46.30;;;;;;5068879;28;20418;-78
2022/04/25 05:33:49;;;;;;;;;;;20.20;46.30;;;;;;5055215;28;19971;-74
2022/04/25 05:36:14;;;;;;;;;;;20.20;46.20;;;;;;5032695;28;19927;-75
2022/04/25 05:38:40;;;;;;;;;;;20.20;46.10;;;;;;5057049;28;20010;-77
2022/04/25 05:41:07;;;;;;;;;;;20.20;46.10;;;;;;5047037;28;19928;-76
2022/04/25 05:43:32;;;;;;;;;;;20.20;46.10;;;;;;5052795;28;19934;-76
2022/04/25 05:45:58;;;;;;;;;;;20.20;46.10;;;;;;5057993;28;19929;-76
2022/04/25 05:53:58;;;;;;;;;;;20.20;46.20;;;;;;5070249;28;19936;-76
2022/04/25 05:56:23;;;;;;;;;;;20.20;46.10;;;;;;5075304;28;19920;-77
2022/04/25 05:58:49;;;;;;;;;;;20.20;46.10;;;;;;5031968;28;20028;-77
2022/04/25 06:01:14;;;;;;;;;;;20.20;46.20;;;;;;5050761;28;19924;-80
2022/04/25 06:03:40;;;;;;;;;;;20.20;46.40;;;;;;5049870;28;19920;-78
2022/04/25 06:06:05;;;;;;;;;;;20.20;46.30;;;;;;5049473;28;19924;-79
2022/04/25 06:08:30;;;;;;;;;;;20.20;46.30;;;;;;5047396;28;19920;-78
2022/04/25 06:10:56;;;;;;;;;;;20.20;46.30;;;;;;5050359;28;20036;-78
2022/04/25 06:13:23;;;;;;;;;;;20.20;47.10;;;;;;5048143;28;19924;-80
2022/04/25 06:15:49;;;;;;;;;;;20.20;46.40;;;;;;5053326;28;19931;-77
2022/04/25 06:18:14;;;;;;;;;;;20.20;46.70;;;;;;5056116;28;19920;-77
2022/04/25 06:20:40;;;;;;;;;;;20.20;46.80;;;;;;5056004;28;19955;-78
2022/04/25 06:23:06;;;;;;;;;;;20.20;46.90;;;;;;5050295;28;19928;-77
2022/04/25 06:25:31;;;;;;;;;;;20.20;47.00;;;;;;5071952;28;20382;-77
2022/04/25 06:27:58;;;;;;;;;;;20.20;47.10;;;;;;5061394;28;19928;-79
2022/04/25 06:30:28;;;;;;;;;;;20.20;47.20;;;;;;5055309;28;19924;-77
2022/04/25 06:32:53;;;;;;;;;;;20.30;47.50;;;;;;5045681;28;20018;-78
2022/04/25 06:35:22;;;;;;;;;;;20.30;47.60;;;;;;5056885;28;20068;-75
2022/04/25 06:37:48;;;;;;;;;;;20.30;47.60;;;;;;5032113;28;20269;-78
2022/04/25 06:40:14;;;;;;;;;;;20.30;47.60;;;;;;5052415;28;19923;-79
2022/04/25 06:42:39;;;;;;;;;;;20.30;47.60;;;;;;5057941;28;20426;-75
2022/04/25 06:45:05;;;;;;;;;;;20.30;47.70;;;;;;5057484;28;19935;-80
2022/04/25 06:47:30;;;;;;;;;;;20.30;47.70;;;;;;5069133;28;19920;-79
2022/04/25 06:49:56;;;;;;;;;;;20.30;47.80;;;;;;5054326;28;19924;-79
2022/04/25 06:52:22;;;;;;;;;;;20.30;47.80;;;;;;5055534;28;20589;-76
2022/04/25 06:54:47;;;;;;;;;;;20.30;47.90;;;;;;5079481;28;19919;-78
2022/04/25 06:57:12;;;;;;;;;;;20.30;47.90;;;;;;5060017;28;19927;-78
2022/04/25 06:59:38;;;;;;;;;;;20.30;48.30;;;;;;5060734;28;19976;-82
2022/04/25 07:02:04;;;;;;;;;;;20.30;47.70;;;;;;5064312;28;20027;-80
2022/04/25 07:04:29;;;;;;;;;;;20.30;47.80;;;;;;5064073;28;19988;-81
2022/04/25 07:06:55;;;;;;;;;;;20.30;47.80;;;;;;5040715;28;19989;-78
2022/04/25 07:09:20;;;;;;;;;;;20.30;47.80;;;;;;5043409;28;19924;-78
2022/04/25 07:11:46;;;;;;;;;;;20.30;47.80;;;;;;5067541;28;20016;-77
2022/04/25 07:14:15;;;;;;;;;;;20.30;47.80;;;;;;5069491;28;19920;-82
2022/04/25 07:16:44;;;;;;;;;;;20.20;47.70;;;;;;5045488;28;20451;-80
2022/04/25 07:19:10;;;;;;;;;;;20.30;47.70;;;;;;5050914;28;20014;-74
2022/04/25 07:29:48;;;;;;;;;;;20.20;47.40;;;;;;5060262;28;19966;-76
2022/04/25 07:32:15;;;;;;;;;;;20.20;47.40;;;;;;5059176;28;19975;-78
2022/04/25 07:34:42;;;;;;;;;;;20.20;47.40;;;;;;5049601;28;20429;-85
2022/04/25 07:37:08;;;;;;;;;;;20.20;47.40;;;;;;5056043;28;20019;-78
2022/04/25 07:39:33;;;;;;;;;;;20.20;47.50;;;;;;5047719;28;20284;-77
2022/04/25 07:41:59;;;;;;;;;;;20.20;47.40;;;;;;5033096;28;20566;-77
2022/04/25 07:44:26;;;;;;;;;;;20.20;47.50;;;;;;5049241;28;19993;-78
2022/04/25 07:46:51;;;;;;;;;;;20.20;47.40;;;;;;5059685;28;19924;-85
2022/04/25 07:49:17;;;;;;;;;;;20.20;47.30;;;;;;5057249;28;19920;-78
2022/04/25 07:51:42;;;;;;;;;;;20.10;47.30;;;;;;5056338;28;19964;-78
2022/04/25 07:54:09;;;;;;;;;;;20.20;47.30;;;;;;5064982;28;19920;-77
2022/04/25 07:56:35;;;;;;;;;;;20.10;47.20;;;;;;5036483;28;20363;-78
2022/04/25 07:59:01;;;;;;;;;;;20.20;47.20;;;;;;5051257;28;19939;-78
2022/04/25 08:01:27;;;;;;;;;;;20.10;47.20;;;;;;5053799;28;20414;-76
2022/04/25 08:03:53;;;;;;;;;;;20.20;47.50;;;;;;5037241;28;19978;-80
2022/04/25 08:06:20;;;;;;;;;;;20.20;47.60;;;;;;5059104;28;19932;-82
2022/04/25 08:08:47;;;;;;;;;;;20.20;47.60;;;;;;5055997;28;19981;-76
2022/04/25 08:11:13;;;;;;;;;;;20.20;47.70;;;;;;5049515;28;20474;-78
2022/04/25 08:19:07;;;;;;;;;;;20.30;47.50;;;;;;5052806;28;19921;-77
2022/04/25 08:21:32;;;;;;;;;;;20.20;47.40;;;;;;5050240;28;19928;-76
2022/04/25 08:23:58;;;;;;;;;;;20.30;47.50;;;;;;5052440;28;19921;-76
2022/04/25 08:26:25;;;;;;;;;;;20.30;47.40;;;;;;5049991;28;19977;-77
2022/04/25 08:28:51;;;;;;;;;;;20.20;47.40;;;;;;5046739;28;19928;-75
2022/04/25 08:31:17;;;;;;;;;;;20.30;47.40;;;;;;5051785;28;19925;-77
2022/04/25 08:33:43;;;;;;;;;;;20.30;47.60;;;;;;5059451;28;19935;-75
2022/04/25 08:36:09;;;;;;;;;;;20.30;47.70;;;;;;5052802;28;19928;-76
2022/04/25 08:38:34;;;;;;;;;;;20.30;47.80;;;;;;5042797;28;19935;-76
2022/04/25 08:41:00;;;;;;;;;;;20.30;47.80;;;;;;5048687;28;19924;-77
2022/04/25 08:43:26;;;;;;;;;;;20.30;47.80;;;;;;5073776;28;19925;-75
2022/04/25 08:45:53;;;;;;;;;;;20.30;47.80;;;;;;5052754;28;19929;-76
2022/04/25 08:48:19;;;;;;;;;;;20.30;47.80;;;;;;5033872;28;19927;-77
2022/04/25 08:50:47;;;;;;;;;;;20.30;47.80;;;;;;5047173;28;20392;-75
2022/04/25 08:53:13;;;;;;;;;;;20.30;47.70;;;;;;5056714;28;20514;-74
2022/04/25 08:55:44;;;;;;;;;;;20.30;47.80;;;;;;5049848;28;19924;-77
2022/04/25 08:58:11;;;;;;;;;;;20.30;47.90;;;;;;5034306;28;19924;-76
2022/04/25 09:00:36;;;;;;;;;;;20.30;47.90;;;;;;5052825;28;19925;-78
2022/04/25 09:03:02;;;;;;;;;;;20.30;48.00;;;;;;5039651;28;20391;-77
2022/04/25 09:05:28;;;;;;;;;;;20.30;48.00;;;;;;5058280;28;19982;-76
2022/04/25 09:07:53;;;;;;;;;;;20.30;48.00;;;;;;5049254;28;19921;-75
2022/04/25 09:10:20;;;;;;;;;;;20.30;48.00;;;;;;5054449;28;19924;-80
2022/04/25 09:12:46;;;;;;;;;;;20.30;48.10;;;;;;5046016;28;20415;-76
2022/04/25 09:15:15;;;;;;;;;;;20.40;48.00;;;;;;5047507;28;19967;-76
2022/04/25 09:17:41;;;;;;;;;;;20.40;48.00;;;;;;5042460;28;19965;-74
2022/04/25 09:20:07;;;;;;;;;;;20.30;47.90;;;;;;5052930;28;19924;-74
2022/04/25 09:22:34;;;;;;;;;;;20.40;48.00;;;;;;5052135;28;19928;-72
2022/04/25 09:25:07;;;;;;;;;;;20.40;47.80;;;;;;5059717;28;19924;-74
2022/04/25 09:27:33;;;;;;;;;;;20.40;47.80;;;;;;5057477;28;19932;-73
2022/04/25 09:30:19;;;;;;;;;;;20.40;47.80;;;;;;5025695;28;19921;-75
2022/04/25 09:32:45;;;;;;;;;;;20.40;47.80;;;;;;5044803;28;20437;-74
2022/04/25 09:35:30;;;;;;;;;;;20.40;47.80;;;;;;5052122;28;19930;-73
2022/04/25 09:37:57;;;;;;;;;;;20.40;47.70;;;;;;5033628;28;20009;-74
2022/04/25 09:40:23;;;;;;;;;;;20.50;47.80;;;;;;5042097;28;19985;-74
2022/04/25 09:43:03;;;;;;;;;;;20.50;47.70;;;;;;5051966;28;19928;-74
2022/04/25 09:45:29;;;;;;;;;;;20.50;47.70;;;;;;5053537;28;20007;-73
2022/04/25 09:47:55;;;;;;;;;;;20.50;47.70;;;;;;5055132;28;20039;-70
2022/04/25 09:50:20;;;;;;;;;;;20.50;47.70;;;;;;5055497;28;19920;-76
2022/04/25 09:52:56;;;;;;;;;;;20.50;47.50;;;;;;5049690;28;19930;-74
2022/04/25 09:55:22;;;;;;;;;;;20.50;47.50;;;;;;5048247;28;20575;-73
2022/04/25 09:57:50;;;;;;;;;;;20.60;47.60;;;;;;5054096;28;19921;-73
2022/04/25 10:00:38;;;;;;;;;;;20.50;47.40;;;;;;5054744;28;19927;-72
2022/04/25 10:03:07;;;;;;;;;;;20.50;47.60;;;;;;5046875;28;19927;-72
2022/04/25 10:05:36;;;;;;;;;;;20.60;47.60;;;;;;5059230;28;19925;-73
2022/04/25 10:08:01;;;;;;;;;;;20.60;47.60;;;;;;5058312;28;20378;-73
2022/04/25 10:10:27;;;;;;;;;;;20.60;47.60;;;;;;5039531;28;19931;-74
2022/04/25 10:12:55;;;;;;;;;;;20.60;47.50;;;;;;5038492;28;19943;-76
2022/04/25 10:15:21;;;;;;;;;;;20.70;47.60;;;;;;5052867;28;19928;-76
2022/04/25 10:17:47;;;;;;;;;;;20.70;47.60;;;;;;5054001;28;19943;-76
2022/04/25 10:20:14;;;;;;;;;;;20.70;47.40;;;;;;5065005;28;20376;-79
2022/04/25 10:22:41;;;;;;;;;;;20.80;47.50;;;;;;5057005;28;19921;-74
2022/04/25 10:25:07;;;;;;;;;;;20.80;47.50;;;;;;5067882;28;19926;-75
2022/04/25 10:27:34;;;;;;;;;;;20.80;48.20;;;;;;5067631;28;19928;-76
2022/04/25 10:30:06;;;;;;;;;;;20.80;47.50;;;;;;5065812;28;19931;-75
2022/04/25 10:32:33;;;;;;;;;;;20.90;47.50;;;;;;5049853;28;20380;-74
2022/04/25 10:35:23;;;;;;;;;;;20.90;47.50;;;;;;5062669;28;19924;-74
2022/04/25 10:37:52;;;;;;;;;;;20.90;47.30;;;;;;5039413;28;19920;-74
2022/04/25 10:44:10;;;;;;;;;;;20.90;47.30;;;;;;5053814;28;20456;-75
2022/04/25 10:46:00;;;;;;;;;;;20.80;47.20;;;;;;5045558;28;19921;-73
2022/04/25 10:48:26;;;;;;;;;;;20.90;47.20;;;;;;5046028;28;20595;-73
2022/04/25 10:51:10;;;;;;;;;;;20.90;47.20;;;;;;5062328;28;19920;-73
2022/04/25 10:53:56;;;;;;;;;;;20.90;47.20;;;;;;5054677;28;20596;-72
2022/04/25 10:56:21;;;;;;;;;;;20.90;47.20;;;;;;5041547;28;19967;-72
2022/04/25 10:59:07;;;;;;;;;;;20.90;47.10;;;;;;5042496;28;19955;-72
2022/04/25 11:01:33;;;;;;;;;;;20.90;47.10;;;;;;5028196;28;20402;-72
2022/04/25 11:04:03;;;;;;;;;;;20.90;47.10;;;;;;5051167;28;20445;-73
2022/04/25 11:06:30;;;;;;;;;;;20.90;47.10;;;;;;5045332;28;20031;-74
2022/04/25 11:08:56;;;;;;;;;;;20.90;47.30;;;;;;5049234;28;19931;-74
2022/04/25 11:11:23;;;;;;;;;;;20.90;47.20;;;;;;5062840;28;20011;-73
2022/04/25 11:13:49;;;;;;;;;;;20.90;47.20;;;;;;5051424;28;19954;-73
2022/04/25 11:16:16;;;;;;;;;;;20.90;47.10;;;;;;5051573;28;19932;-74
2022/04/25 11:18:42;;;;;;;;;;;20.90;47.20;;;;;;5061872;28;19924;-73
2022/04/25 11:21:08;;;;;;;;;;;20.90;47.10;;;;;;5065155;28;19970;-72
2022/04/25 11:23:35;;;;;;;;;;;20.90;47.10;;;;;;5055022;28;19982;-74
2022/04/25 11:26:04;;;;;;;;;;;20.90;47.10;;;;;;5044227;28;19928;-74
2022/04/25 11:28:30;;;;;;;;;;;20.90;47.20;;;;;;5051232;28;20022;-74
2022/04/25 11:31:43;;;;;;;;;;;20.90;47.10;;;;;;5062979;28;20019;-73
2022/04/25 11:34:13;;;;;;;;;;;20.90;47.10;;;;;;4987370;28;19944;-72
2022/04/25 11:36:46;;;;;;;;;;;20.90;47.20;;;;;;4988207;28;20016;-73
2022/04/25 11:42:06;;;;;;;;;;;20.90;47.10;;;;;;5053132;28;19931;-73
2022/04/25 11:44:34;;;;;;;;;;;20.90;47.20;;;;;;5050327;28;20364;-73
2022/04/25 11:47:00;;;;;;;;;;;20.90;47.30;;;;;;5045882;28;20039;-71
2022/04/25 11:49:29;;;;;;;;;;;20.90;47.40;;;;;;5045120;28;20166;-71
2022/04/25 11:51:58;;;;;;;;;;;20.90;47.40;;;;;;5039310;28;20011;-71
2022/04/25 11:54:24;;;;;;;;;;;20.90;47.10;;;;;;5052472;28;20406;-72
2022/04/25 11:56:50;;;;;;;;;;;20.90;47.10;;;;;;5055622;28;19921;-72
2022/04/25 11:59:17;;;;;;;;;;;20.90;47.00;;;;;;5048948;28;19970;-72
2022/04/25 12:01:47;;;;;;;;;;;20.90;47.00;;;;;;5077012;28;19930;-71
2022/04/25 12:04:21;;;;;;;;;;;20.90;46.90;;;;;;5032415;28;19924;-78
2022/04/25 12:06:47;;;;;;;;;;;20.90;46.80;;;;;;5037385;28;19921;-71
2022/04/25 12:18:16;;;;;;;;;;;20.90;46.70;;;;;;5031616;28;19928;-72
2022/04/25 12:20:49;;;;;;;;;;;20.90;46.80;;;;;;5033465;28;19939;-72
2022/04/25 12:23:25;;;;;;;;;;;20.90;46.80;;;;;;5035231;28;19944;-72
2022/04/25 12:25:51;;;;;;;;;;;21.00;46.90;;;;;;5031335;28;20012;-71
2022/04/25 12:28:22;;;;;;;;;;;21.00;46.80;;;;;;5033228;28;19920;-71
2022/04/25 12:30:52;;;;;;;;;;;21.00;46.80;;;;;;5033666;28;19921;-71
2022/04/25 12:33:20;;;;;;;;;;;21.00;46.60;;;;;;5031444;28;19928;-71
2022/04/25 12:35:47;;;;;;;;;;;21.00;46.50;;;;;;5033605;28;19928;-72
2022/04/25 12:38:40;;;;;;;;;;;21.00;46.50;;;;;;5036126;28;19925;-72
2022/04/25 12:41:07;;;;;;;;;;;21.00;46.50;;;;;;5035187;28;19968;-73
2022/04/25 12:43:33;;;;;;;;;;;21.00;46.50;;;;;;5023895;28;19932;-73
2022/04/25 12:45:58;;;;;;;;;;;21.00;46.50;;;;;;5038359;28;19921;-74
2022/04/25 12:48:24;;;;;;;;;;;21.00;46.50;;;;;;5034009;28;19924;-73
2022/04/25 12:50:51;;;;;;;;;;;21.00;46.50;;;;;;5036321;28;19932;-73
2022/04/25 12:53:36;;;;;;;;;;;20.90;46.40;;;;;;5033948;28;20425;-74
2022/04/25 12:56:02;;;;;;;;;;;20.90;46.30;;;;;;5028167;28;19925;-75
2022/04/25 12:58:32;;;;;;;;;;;20.90;46.40;;;;;;5006336;28;19921;-75
2022/04/25 13:00:58;;;;;;;;;;;20.90;46.40;;;;;;5028394;28;19995;-76
2022/04/25 13:03:25;;;;;;;;;;;20.90;46.40;;;;;;5040027;28;19924;-74
2022/04/25 13:05:50;;;;;;;;;;;20.90;46.40;;;;;;5027390;28;19925;-76
2022/04/25 13:08:16;;;;;;;;;;;20.80;46.40;;;;;;5034312;28;19920;-74
2022/04/25 13:10:44;;;;;;;;;;;20.80;46.50;;;;;;5034149;28;19931;-76
2022/04/25 13:13:10;;;;;;;;;;;20.80;46.50;;;;;;5045666;28;19924;-75
2022/04/25 13:15:38;;;;;;;;;;;20.80;46.50;;;;;;5053269;28;19935;-75
2022/04/25 13:18:04;;;;;;;;;;;20.80;46.60;;;;;;5042457;28;19920;-74
2022/04/25 13:20:31;;;;;;;;;;;20.80;46.60;;;;;;5055066;28;19973;-75
2022/04/25 13:22:57;;;;;;;;;;;20.80;46.70;;;;;;5058289;28;19921;-73
2022/04/25 13:25:23;;;;;;;;;;;20.70;46.70;;;;;;5051553;28;19966;-75
2022/04/25 13:27:52;;;;;;;;;;;20.70;46.80;;;;;;5054241;28;19927;-75
2022/04/25 13:30:20;;;;;;;;;;;20.70;46.90;;;;;;5053240;28;19928;-75
2022/04/25 13:32:46;;;;;;;;;;;20.70;46.90;;;;;;5062317;28;19924;-75
2022/04/25 13:35:14;;;;;;;;;;;20.70;47.10;;;;;;5051787;28;20016;-74
2022/04/25 13:37:39;;;;;;;;;;;20.70;47.10;;;;;;5034303;28;19928;-75
2022/04/25 13:40:06;;;;;;;;;;;20.70;47.30;;;;;;5040752;28;19966;-74
2022/04/25 13:42:32;;;;;;;;;;;20.70;47.20;;;;;;5052038;28;19924;-74
2022/04/25 13:44:57;;;;;;;;;;;20.70;47.40;;;;;;5053918;28;20472;-74
2022/04/25 13:47:23;;;;;;;;;;;20.70;47.40;;;;;;5053401;28;19917;-75
2022/04/25 13:49:49;;;;;;;;;;;20.70;47.50;;;;;;5042233;28;20380;-75
2022/04/25 13:52:14;;;;;;;;;;;20.70;47.50;;;;;;5050450;28;19924;-74
2022/04/25 13:54:40;;;;;;;;;;;20.70;47.50;;;;;;5047834;28;19934;-75
2022/04/25 13:57:06;;;;;;;;;;;20.60;47.50;;;;;;5052769;28;19924;-75
2022/04/25 13:59:32;;;;;;;;;;;20.70;47.60;;;;;;5051798;28;19928;-75
2022/04/25 14:03:05;;;;;;;;;;;20.60;47.60;;;;;;5049502;28;20001;-75
2022/04/25 14:04:44;;;;;;;;;;;20.60;47.60;;;;;;5054189;28;19990;-73
2022/04/25 14:07:09;;;;;;;;;;;20.60;47.80;;;;;;5057878;28;20027;-74
2022/04/25 14:09:35;;;;;;;;;;;20.60;47.90;;;;;;5049284;28;20014;-73
2022/04/25 14:12:00;;;;;;;;;;;20.60;48.00;;;;;;5049203;28;20293;-72
2022/04/25 14:14:26;;;;;;;;;;;20.60;48.00;;;;;;5065359;28;19963;-72
2022/04/25 14:16:53;;;;;;;;;;;20.60;48.10;;;;;;5060222;28;20398;-73
2022/04/25 14:19:19;;;;;;;;;;;20.60;48.10;;;;;;5058879;28;19924;-74
2022/04/25 14:21:45;;;;;;;;;;;20.60;48.10;;;;;;5056039;28;19930;-73
2022/04/25 14:24:11;;;;;;;;;;;20.60;48.10;;;;;;5040878;28;20390;-76
2022/04/25 14:26:36;;;;;;;;;;;20.60;48.10;;;;;;5061647;28;19926;-73
2022/04/25 14:29:02;;;;;;;;;;;20.60;48.00;;;;;;5055478;28;20705;-72
2022/04/25 14:31:27;;;;;;;;;;;20.60;47.80;;;;;;5054700;28;19931;-70
2022/04/25 14:33:53;;;;;;;;;;;20.60;47.70;;;;;;5063562;28;19935;-73
2022/04/25 14:36:18;;;;;;;;;;;20.50;47.50;;;;;;5046687;28;19935;-76
2022/04/25 14:38:45;;;;;;;;;;;20.60;47.30;;;;;;5054261;28;20005;-72
2022/04/25 14:41:10;;;;;;;;;;;20.60;47.30;;;;;;5059652;28;19920;-76
2022/04/25 14:43:39;;;;;;;;;;;20.60;47.20;;;;;;5053756;28;19928;-69
2022/04/25 14:46:04;;;;;;;;;;;20.60;47.20;;;;;;5034522;28;19926;-76
2022/04/25 14:48:30;;;;;;;;;;;20.60;47.10;;;;;;5047041;28;19965;-73
2022/04/25 14:56:27;;;;;;;;;;;20.60;47.00;;;;;;5058612;28;19920;-73
2022/04/25 14:58:55;;;;;;;;;;;20.60;47.00;;;;;;5055378;28;19924;-75
2022/04/25 15:01:21;;;;;;;;;;;20.60;47.00;;;;;;5066427;28;19952;-76
2022/04/25 15:03:47;;;;;;;;;;;20.60;46.90;;;;;;5069238;28;19959;-83